Terminal Aerodrome Forecast
Issued by NWS Brownsville, TX

Home | Current Version | Previous Version | Text Only | Print | Product List | Glossary On
Versions: 1 2 3 4 5 6 7 8 9 10 11 12 13 14 15 16 17 18 19 20 21 22
030
FTUS44 KBRO 142320
TAFBRO
TAF
KBRO 142320Z 1500/1524 17021G28KT P6SM SCT250
     FM150100 15012G18KT P6SM FEW250
     FM150600 16008KT P6SM SKC
     FM150900 15006KT P6SM OVC015
      TEMPO 1510/1514 5SM BR
     FM151500 17013KT P6SM BKN025=

USA.gov is the U.S. government's official web portal to all federal, state and local government web resources and services.